createdAt,value
2018-02-04T00:00:09.295Z,14.82
2018-02-04T00:02:38.611Z,15.80
2018-02-04T00:05:07.865Z,16.65
2018-02-04T00:07:36.462Z,16.77
2018-02-04T00:10:05.046Z,14.75
2018-02-04T00:12:34.135Z,15.55
2018-02-04T00:15:03.608Z,15.60
2018-02-04T00:17:32.048Z,15.30
2018-02-04T00:20:00.387Z,18.17
2018-02-04T00:22:38.557Z,15.10
2018-02-04T00:25:06.931Z,17.62
2018-02-04T00:27:35.943Z,14.93
2018-02-04T00:30:04.813Z,14.80
2018-02-04T00:32:33.772Z,14.98
2018-02-04T00:35:02.136Z,13.88
2018-02-04T00:37:30.586Z,14.75
2018-02-04T00:39:59.274Z,14.15
2018-02-04T00:42:28.389Z,13.90
2018-02-04T00:44:57.581Z,15.10
2018-02-04T00:47:26.795Z,16.10
2018-02-04T00:49:55.121Z,16.35
2018-02-04T00:52:23.433Z,15.95
2018-02-04T00:54:52.522Z,15.35
2018-02-04T00:57:21.694Z,14.85
2018-02-04T00:59:50.167Z,13.98
2018-02-04T01:02:19.097Z,13.70
2018-02-04T01:04:48.249Z,12.70
2018-02-04T01:07:16.706Z,13.15
2018-02-04T01:09:45.134Z,13.62
2018-02-04T01:12:14.215Z,13.05
2018-02-04T01:14:42.528Z,13.45
2018-02-04T01:17:11.215Z,14.38
2018-02-04T01:19:39.594Z,13.25
2018-02-04T01:22:08.062Z,15.18
2018-02-04T01:24:36.445Z,12.18
2018-02-04T01:27:05.612Z,13.98
2018-02-04T01:29:34.016Z,13.23
2018-02-04T01:32:03.294Z,14.38
2018-02-04T01:34:32.378Z,16.10
2018-02-04T01:37:01.346Z,12.37
2018-02-04T01:39:30.739Z,12.63
2018-02-04T01:41:59.109Z,11.77
2018-02-04T01:44:27.844Z,11.70
2018-02-04T01:46:56.238Z,11.18
2018-02-04T01:49:25.381Z,10.00
2018-02-04T01:51:53.792Z,10.75
2018-02-04T01:54:22.088Z,8.73
2018-02-04T01:56:51.222Z,8.98
2018-02-04T01:59:19.538Z,8.93
2018-02-04T02:01:48.608Z,8.40
2018-02-04T02:04:16.922Z,8.52
2018-02-04T02:06:46.026Z,9.05
2018-02-04T02:09:15.197Z,8.32
2018-02-04T02:11:43.507Z,9.73
2018-02-04T02:14:12.562Z,10.45
2018-02-04T02:16:40.995Z,10.00
2018-02-04T02:19:09.416Z,9.95
2018-02-04T02:21:37.753Z,10.80
2018-02-04T02:24:06.090Z,11.43
2018-02-04T02:26:35.202Z,11.60
2018-02-04T02:29:03.524Z,13.82
2018-02-04T02:31:31.827Z,13.35
2018-02-04T02:34:00.166Z,15.60
2018-02-04T02:36:30.002Z,15.63
2018-02-04T02:38:59.131Z,15.88
2018-02-04T02:41:27.450Z,16.05
2018-02-04T02:43:55.781Z,15.23
2018-02-04T02:46:24.871Z,15.00
2018-02-04T02:48:54.157Z,14.93
2018-02-04T02:51:23.253Z,15.50
2018-02-04T02:53:51.573Z,14.43
2018-02-04T02:56:19.898Z,14.73
2018-02-04T02:58:48.198Z,14.90
2018-02-04T03:01:17.378Z,15.95
2018-02-04T03:03:46.478Z,15.43
2018-02-04T03:06:15.878Z,14.45
2018-02-04T03:08:44.976Z,12.45
2018-02-04T03:11:14.093Z,14.65
2018-02-04T03:13:42.454Z,13.40
2018-02-04T03:16:11.698Z,13.40
2018-02-04T03:18:40.038Z,15.32
2018-02-04T03:21:08.359Z,14.13
2018-02-04T03:23:36.778Z,13.98
2018-02-04T03:26:05.879Z,14.25
2018-02-04T03:28:35.083Z,12.55
2018-02-04T03:31:03.408Z,13.77
2018-02-04T03:33:31.753Z,12.98
2018-02-04T03:36:00.638Z,13.23
2018-02-04T03:38:29.782Z,14.87
2018-02-04T03:40:58.109Z,14.57
2018-02-04T03:43:26.412Z,15.95
2018-02-04T03:45:54.747Z,15.75
2018-02-04T03:48:23.128Z,15.32
2018-02-04T03:50:51.431Z,16.08
2018-02-04T03:53:19.900Z,16.52
2018-02-04T03:55:48.386Z,15.40
2018-02-04T03:58:16.691Z,15.07
2018-02-04T04:00:45.035Z,13.62
2018-02-04T04:03:13.474Z,12.88
2018-02-04T04:05:42.544Z,15.98
2018-02-04T04:08:10.884Z,17.55
2018-02-04T04:10:39.196Z,14.07
2018-02-04T04:13:08.319Z,13.23
2018-02-04T04:15:36.634Z,14.00
2018-02-04T04:18:04.931Z,13.10
2018-02-04T04:20:34.040Z,15.57
2018-02-04T04:23:02.352Z,15.70
2018-02-04T04:25:30.694Z,15.32
2018-02-04T04:27:58.996Z,16.62
2018-02-04T04:30:28.122Z,15.70
2018-02-04T04:32:57.176Z,18.37
2018-02-04T04:35:26.244Z,19.55
2018-02-04T04:37:54.584Z,19.62
2018-02-04T04:40:22.910Z,17.77
2018-02-04T04:42:51.239Z,17.00
2018-02-04T04:45:19.535Z,16.45
2018-02-04T04:47:48.709Z,15.70
2018-02-04T04:50:17.302Z,15.27
2018-02-04T04:52:45.603Z,17.35
2018-02-04T04:55:14.048Z,15.18
2018-02-04T04:57:42.471Z,16.37
2018-02-04T05:00:10.804Z,16.50
2018-02-04T05:02:39.195Z,14.32
2018-02-04T05:05:07.607Z,15.45
2018-02-04T05:07:36.007Z,16.75
2018-02-04T05:10:05.064Z,15.73
2018-02-04T05:12:33.394Z,16.48
2018-02-04T05:15:01.710Z,16.23
2018-02-04T05:17:30.037Z,15.38
2018-02-04T05:19:58.543Z,15.57
2018-02-04T05:22:26.890Z,15.05
2018-02-04T05:24:55.216Z,15.75
2018-02-04T05:27:23.998Z,14.60
2018-02-04T05:29:52.354Z,15.95
2018-02-04T05:32:20.907Z,14.93
2018-02-04T05:34:49.521Z,14.87
2018-02-04T05:37:18.868Z,15.82
2018-02-04T05:39:47.556Z,15.18
2018-02-04T05:42:17.413Z,17.10
2018-02-04T05:44:46.172Z,14.77
2018-02-04T05:47:15.534Z,14.50
2018-02-04T05:49:47.782Z,15.80
2018-02-04T05:52:16.369Z,14.15
2018-02-04T05:54:45.080Z,16.40
2018-02-04T05:57:13.666Z,17.08
2018-02-04T05:59:43.329Z,16.05
2018-02-04T06:02:11.943Z,16.15
2018-02-04T06:04:40.529Z,15.05
2018-02-04T06:07:09.040Z,17.92
2018-02-04T06:09:38.600Z,16.55
2018-02-04T06:12:07.166Z,16.45
2018-02-04T06:14:35.637Z,17.50
2018-02-04T06:17:04.219Z,15.73
2018-02-04T06:19:32.710Z,14.43
2018-02-04T06:22:01.691Z,16.37
2018-02-04T06:24:30.042Z,15.68
2018-02-04T06:26:58.699Z,15.32
2018-02-04T06:29:28.261Z,15.85
2018-02-04T06:31:56.850Z,16.37
2018-02-04T06:34:25.655Z,16.58
2018-02-04T06:36:54.759Z,16.48
2018-02-04T06:39:23.451Z,18.52
2018-02-04T06:41:53.135Z,17.20
2018-02-04T06:44:21.703Z,17.27
2018-02-04T06:46:50.337Z,17.75
2018-02-04T06:49:19.990Z,18.70
2018-02-04T06:51:48.779Z,16.92
2018-02-04T06:54:17.411Z,18.60
2018-02-04T06:56:46.345Z,17.60
2018-02-04T06:59:14.866Z,17.85
2018-02-04T07:01:43.489Z,16.27
2018-02-04T07:04:12.082Z,15.35
2018-02-04T07:06:40.691Z,16.15
2018-02-04T07:09:09.205Z,16.60
2018-02-04T07:11:37.697Z,17.00
2018-02-04T07:14:06.287Z,17.75
2018-02-04T07:16:34.621Z,17.52
2018-02-04T07:19:02.918Z,16.67
2018-02-04T07:21:31.268Z,16.48
2018-02-04T07:24:00.090Z,16.80
2018-02-04T07:26:28.390Z,17.27
2018-02-04T07:28:56.829Z,16.87
2018-02-04T07:31:25.156Z,16.83
2018-02-04T07:33:53.473Z,16.33
2018-02-04T07:36:21.771Z,17.50
2018-02-04T07:38:50.235Z,17.45
2018-02-04T07:41:18.772Z,15.45
2018-02-04T07:43:47.084Z,15.98
2018-02-04T07:46:16.313Z,17.42
2018-02-04T07:48:45.444Z,17.52
2018-02-04T07:51:13.798Z,17.23
2018-02-04T07:53:42.122Z,17.40
2018-02-04T07:56:10.465Z,18.73
2018-02-04T07:58:38.817Z,19.30
2018-02-04T08:01:07.203Z,19.67
2018-02-04T08:03:35.542Z,16.95
2018-02-04T08:06:03.920Z,19.17
2018-02-04T08:08:32.328Z,18.70
2018-02-04T08:11:00.682Z,18.85
2018-02-04T08:13:29.052Z,19.83
2018-02-04T08:15:59.422Z,19.95
2018-02-04T08:18:27.737Z,19.33
2018-02-04T08:20:56.216Z,18.05
2018-02-04T08:23:24.595Z,17.70
2018-02-04T08:25:53.099Z,18.48
2018-02-04T08:28:22.391Z,18.77
2018-02-04T08:30:50.862Z,18.05
2018-02-04T08:33:19.984Z,18.62
2018-02-04T08:35:49.115Z,17.48
2018-02-04T08:38:17.421Z,17.95
2018-02-04T08:40:45.776Z,19.17
2018-02-04T08:43:14.099Z,18.90
2018-02-04T08:45:43.138Z,18.80
2018-02-04T08:48:13.055Z,17.77
2018-02-04T08:50:41.481Z,18.83
2018-02-04T08:53:09.809Z,19.90
2018-02-04T08:55:38.115Z,18.25
2018-02-04T08:58:06.456Z,17.23
2018-02-04T09:00:34.816Z,18.67
2018-02-04T09:03:03.152Z,17.50
2018-02-04T09:05:32.245Z,18.37
2018-02-04T09:08:00.720Z,17.15
2018-02-04T09:10:29.103Z,19.85
2018-02-04T09:12:58.457Z,18.60
2018-02-04T09:15:26.840Z,17.17
2018-02-04T09:17:55.171Z,18.48
2018-02-04T09:20:23.730Z,18.15
2018-02-04T09:22:52.177Z,16.90
2018-02-04T09:25:20.529Z,16.67
2018-02-04T09:27:53.804Z,17.67
2018-02-04T09:30:22.299Z,15.73
2018-02-04T09:32:50.706Z,15.40
2018-02-04T09:35:19.159Z,16.60
2018-02-04T09:37:47.614Z,15.93
2018-02-04T09:40:15.957Z,14.13
2018-02-04T09:42:44.420Z,15.45
2018-02-04T09:45:12.854Z,15.30
2018-02-04T09:47:41.475Z,15.70
2018-02-04T09:50:09.867Z,14.60
2018-02-04T09:52:39.389Z,14.02
2018-02-04T09:55:08.059Z,13.70
2018-02-04T09:57:36.777Z,13.57
2018-02-04T10:00:05.352Z,15.60
2018-02-04T10:02:34.534Z,14.43
2018-02-04T10:05:03.229Z,13.90
2018-02-04T10:07:32.801Z,15.13
2018-02-04T10:10:01.436Z,15.00
2018-02-04T10:12:30.027Z,14.38
2018-02-04T10:14:59.422Z,13.40
2018-02-04T10:17:29.183Z,14.18
2018-02-04T10:19:58.062Z,14.87
2018-02-04T10:22:26.937Z,15.52
2018-02-04T10:24:55.549Z,15.25
2018-02-04T10:27:24.440Z,15.82
2018-02-04T10:29:53.615Z,14.52
2018-02-04T10:32:22.142Z,15.73
2018-02-04T10:34:50.993Z,16.67
2018-02-04T10:37:19.778Z,16.15
2018-02-04T10:39:48.302Z,17.80
2018-02-04T10:42:16.908Z,19.30
2018-02-04T10:44:45.468Z,16.90
2018-02-04T10:47:14.168Z,24.95
2018-02-04T10:49:42.832Z,21.80
2018-02-04T10:52:12.602Z,16.17
2018-02-04T10:54:41.229Z,13.45
2018-02-04T10:57:09.940Z,14.30
2018-02-04T10:59:39.370Z,14.30
2018-02-04T11:02:07.958Z,12.63
2018-02-04T11:04:36.450Z,11.25
2018-02-04T11:07:05.007Z,8.38
2018-02-04T11:09:33.561Z,6.15
2018-02-04T11:12:02.229Z,5.70
2018-02-04T11:14:30.946Z,4.85
2018-02-04T11:16:59.561Z,2.80
2018-02-04T11:19:29.039Z,3.20
2018-02-04T11:21:57.669Z,3.55
2018-02-04T11:24:27.230Z,4.30
2018-02-04T11:26:56.146Z,3.37
2018-02-04T11:29:25.567Z,4.97
2018-02-04T11:31:54.447Z,4.12
2018-02-04T11:34:23.951Z,3.40
2018-02-04T11:36:54.283Z,3.12
2018-02-04T11:39:23.657Z,3.62
2018-02-04T11:41:52.417Z,3.78
2018-02-04T11:44:21.156Z,3.85
2018-02-04T11:46:49.947Z,3.55
2018-02-04T11:49:18.543Z,4.15
2018-02-04T11:51:47.112Z,3.35
2018-02-04T11:54:15.669Z,3.45
2018-02-04T11:56:45.373Z,3.40
2018-02-04T11:59:14.223Z,2.83
2018-02-04T12:01:42.814Z,3.42
2018-02-04T12:04:12.039Z,3.25
2018-02-04T12:06:41.108Z,4.57
2018-02-04T12:09:09.865Z,4.28
2018-02-04T12:11:39.952Z,4.20
2018-02-04T12:14:08.786Z,4.80
2018-02-04T12:16:37.817Z,5.55
2018-02-04T12:19:06.478Z,5.20
2018-02-04T12:21:35.525Z,5.35
2018-02-04T12:24:04.555Z,3.97
2018-02-04T12:26:33.801Z,5.95
2018-02-04T12:29:03.486Z,5.28
2018-02-04T12:31:33.106Z,5.30
2018-02-04T12:34:01.740Z,5.60
2018-02-04T12:36:30.567Z,6.75
2018-02-04T12:39:00.362Z,5.68
2018-02-04T12:41:29.123Z,5.28
2018-02-04T12:43:58.824Z,5.78
2018-02-04T12:46:29.069Z,6.00
2018-02-04T12:48:57.817Z,5.80
2018-02-04T12:51:26.239Z,5.78
2018-02-04T12:53:55.052Z,6.85
2018-02-04T12:56:23.620Z,6.65
2018-02-04T12:58:53.127Z,7.55
2018-02-04T13:01:21.894Z,7.07
2018-02-04T13:03:51.341Z,7.50
2018-02-04T13:06:20.118Z,7.22
2018-02-04T13:08:49.240Z,6.78
2018-02-04T13:11:19.014Z,6.00
2018-02-04T13:13:47.765Z,7.10
2018-02-04T13:16:16.685Z,6.07
2018-02-04T13:18:45.433Z,6.12
2018-02-04T13:21:13.980Z,7.03
2018-02-04T13:23:43.978Z,6.70
2018-02-04T13:26:12.567Z,6.15
2018-02-04T13:28:41.117Z,5.62
2018-02-04T13:31:11.267Z,7.57
2018-02-04T13:33:39.882Z,6.70
2018-02-04T13:36:08.828Z,7.93
2018-02-04T13:38:37.634Z,7.70
2018-02-04T13:41:08.288Z,6.93
2018-02-04T13:43:37.643Z,7.22
2018-02-04T13:46:07.182Z,6.43
2018-02-04T13:48:36.043Z,6.55
2018-02-04T13:51:05.240Z,6.32
2018-02-04T13:53:34.224Z,5.50
2018-02-04T13:56:02.809Z,5.90
2018-02-04T13:58:31.619Z,6.00
2018-02-04T14:01:00.755Z,6.07
2018-02-04T14:03:30.501Z,6.20
2018-02-04T14:05:59.595Z,6.37
2018-02-04T14:08:29.359Z,5.43
2018-02-04T14:10:58.328Z,6.18
2018-02-04T14:13:28.117Z,5.22
2018-02-04T14:15:56.936Z,6.35
2018-02-04T14:18:26.204Z,6.35
2018-02-04T14:20:56.025Z,7.03
2018-02-04T14:23:24.899Z,6.95
2018-02-04T14:25:54.103Z,7.57
2018-02-04T14:28:23.397Z,6.37
2018-02-04T14:30:52.046Z,7.30
2018-02-04T14:33:21.494Z,6.30
2018-02-04T14:35:50.236Z,5.57
2018-02-04T14:38:20.435Z,6.57
2018-02-04T14:40:49.389Z,5.25
2018-02-04T14:43:19.001Z,5.78
2018-02-04T14:45:49.764Z,7.45
2018-02-04T14:48:18.555Z,7.47
2018-02-04T14:50:48.007Z,6.90
2018-02-04T14:53:16.826Z,6.60
2018-02-04T14:55:46.109Z,7.05
2018-02-04T14:58:14.601Z,7.05
2018-02-04T15:00:43.459Z,7.45
2018-02-04T15:03:12.225Z,5.53
2018-02-04T15:05:41.019Z,8.95
2018-02-04T15:08:11.458Z,13.57
2018-02-04T15:10:40.446Z,14.57
2018-02-04T15:13:10.693Z,9.50
2018-02-04T15:15:41.274Z,8.10
2018-02-04T15:18:10.121Z,8.65
2018-02-04T15:20:39.817Z,7.45
2018-02-04T15:23:09.652Z,7.28
2018-02-04T15:25:39.421Z,8.02
2018-02-04T15:28:10.683Z,7.75
2018-02-04T15:30:40.984Z,7.57
2018-02-04T15:33:11.641Z,7.75
2018-02-04T15:35:40.606Z,8.10
2018-02-04T15:38:09.393Z,8.07
2018-02-04T15:40:41.074Z,7.72
2018-02-04T15:43:09.991Z,8.43
2018-02-04T15:45:39.040Z,8.40
2018-02-04T15:48:07.681Z,8.15
2018-02-04T15:50:36.825Z,9.48
2018-02-04T15:53:06.316Z,8.60
2018-02-04T15:55:35.098Z,7.78
2018-02-04T15:58:04.338Z,8.57
2018-02-04T16:00:34.245Z,8.85
2018-02-04T16:03:07.201Z,8.40
2018-02-04T16:05:35.759Z,8.05
2018-02-04T16:08:05.390Z,8.15
2018-02-04T16:10:34.123Z,9.82
2018-02-04T16:13:02.855Z,8.38
2018-02-04T16:15:32.287Z,8.98
2018-02-04T16:18:01.289Z,10.05
2018-02-04T16:20:29.839Z,7.90
2018-02-04T16:22:58.941Z,7.78
2018-02-04T16:25:27.666Z,7.43
2018-02-04T16:27:56.703Z,7.15
2018-02-04T16:30:25.187Z,6.93
2018-02-04T16:32:54.068Z,7.45
2018-02-04T16:35:22.864Z,7.45
2018-02-04T16:37:51.442Z,7.12
2018-02-04T16:40:20.249Z,7.05
2018-02-04T16:42:49.199Z,6.70
2018-02-04T16:45:17.787Z,6.62
2018-02-04T16:47:46.252Z,7.20
2018-02-04T16:50:15.631Z,7.72
2018-02-04T16:52:44.656Z,7.65
2018-02-04T16:55:13.276Z,8.50
2018-02-04T16:57:42.362Z,9.00
2018-02-04T17:00:11.428Z,7.60
2018-02-04T17:02:40.740Z,7.10
2018-02-04T17:05:10.172Z,8.60
2018-02-04T17:07:38.998Z,7.60
2018-02-04T17:10:08.194Z,9.27
2018-02-04T17:12:37.759Z,7.85
2018-02-04T17:15:07.527Z,6.93
2018-02-04T17:17:36.235Z,7.82
2018-02-04T17:20:05.596Z,7.90
2018-02-04T17:22:35.231Z,8.90
2018-02-04T17:25:03.776Z,8.63
2018-02-04T17:27:32.719Z,9.30
2018-02-04T17:30:01.439Z,9.50
2018-02-04T17:32:30.290Z,11.57
2018-02-04T17:35:00.104Z,10.75
2018-02-04T17:37:28.738Z,10.88
2018-02-04T17:39:58.190Z,11.35
2018-02-04T17:42:28.673Z,9.75
2018-02-04T17:44:57.566Z,12.23
2018-02-04T17:47:26.295Z,12.55
2018-02-04T17:49:54.875Z,12.90
2018-02-04T17:52:24.996Z,11.32
2018-02-04T17:54:53.643Z,11.30
2018-02-04T17:57:22.275Z,12.52
2018-02-04T17:59:51.647Z,11.00
2018-02-04T18:02:20.956Z,12.15
2018-02-04T18:04:50.568Z,12.10
2018-02-04T18:07:20.226Z,13.50
2018-02-04T18:09:48.789Z,10.90
2018-02-04T18:12:17.494Z,12.25
2018-02-04T18:14:47.599Z,12.63
2018-02-04T18:17:17.614Z,12.95
2018-02-04T18:19:47.174Z,10.90
2018-02-04T18:22:17.300Z,12.98
2018-02-04T18:24:46.379Z,13.73
2018-02-04T18:27:15.480Z,16.05
2018-02-04T18:29:45.124Z,12.43
2018-02-04T18:32:13.781Z,15.00
2018-02-04T18:34:42.401Z,13.80
2018-02-04T18:37:12.653Z,13.35
2018-02-04T18:39:41.224Z,15.40
2018-02-04T18:42:12.253Z,13.32
2018-02-04T18:44:41.813Z,16.12
2018-02-04T18:47:12.428Z,14.75
2018-02-04T18:49:40.919Z,15.38
2018-02-04T18:52:09.656Z,14.30
2018-02-04T18:54:39.423Z,14.75
2018-02-04T18:57:08.307Z,13.73
2018-02-04T18:59:38.332Z,14.63
2018-02-04T19:02:06.975Z,14.18
2018-02-04T19:04:35.622Z,16.12
2018-02-04T19:07:06.111Z,13.80
2018-02-04T19:09:35.209Z,13.80
2018-02-04T19:12:04.498Z,14.20
2018-02-04T19:14:34.314Z,13.80
2018-02-04T19:17:02.895Z,13.20
2018-02-04T19:19:38.293Z,14.95
2018-02-04T19:22:08.566Z,16.45
2018-02-04T19:24:37.173Z,14.55
2018-02-04T19:27:05.689Z,16.33
2018-02-04T19:29:34.256Z,16.85
2018-02-04T19:32:03.542Z,15.98
2018-02-04T19:34:33.392Z,15.40
2018-02-04T19:37:03.605Z,15.38
2018-02-04T19:39:32.361Z,16.45
2018-02-04T19:42:02.079Z,17.20
2018-02-04T19:44:31.543Z,16.15
2018-02-04T19:47:00.933Z,15.07
2018-02-04T19:49:30.918Z,14.55
2018-02-04T19:51:59.442Z,15.45
2018-02-04T19:54:28.274Z,14.73
2018-02-04T19:56:58.109Z,14.77
2018-02-04T19:59:26.949Z,15.13
2018-02-04T20:01:55.588Z,14.35
2018-02-04T20:04:24.235Z,15.77
2018-02-04T20:06:54.007Z,15.57
2018-02-04T20:09:24.274Z,17.20
2018-02-04T20:11:54.094Z,17.25
2018-02-04T20:14:23.673Z,16.95
2018-02-04T20:16:53.352Z,15.80
2018-02-04T20:19:22.035Z,16.15
2018-02-04T20:21:50.457Z,16.25
2018-02-04T20:24:19.046Z,16.55
2018-02-04T20:26:55.011Z,16.90
2018-02-04T20:29:23.644Z,14.48
2018-02-04T20:31:52.272Z,16.12
2018-02-04T20:34:38.725Z,16.40
2018-02-04T20:37:07.694Z,15.98
2018-02-04T20:39:36.216Z,16.02
2018-02-04T20:42:05.087Z,16.23
2018-02-04T20:44:34.127Z,18.08
2018-02-04T20:47:02.980Z,16.30
2018-02-04T20:49:31.840Z,17.95
2018-02-04T20:52:00.726Z,18.25
2018-02-04T20:54:29.814Z,14.30
2018-02-04T20:56:58.922Z,16.00
2018-02-04T20:59:27.543Z,17.60
2018-02-04T21:01:56.591Z,16.90
2018-02-04T21:04:25.176Z,16.55
2018-02-04T21:06:55.080Z,16.95
2018-02-04T21:09:23.973Z,16.60
2018-02-04T21:11:52.859Z,17.35
2018-02-04T21:14:24.738Z,17.70
2018-02-04T21:16:54.544Z,16.80
2018-02-04T21:19:23.936Z,18.35
2018-02-04T21:21:52.891Z,18.83
2018-02-04T21:24:22.759Z,18.27
2018-02-04T21:26:51.524Z,17.35
2018-02-04T21:29:20.300Z,16.50
2018-02-04T21:31:48.958Z,18.70
2018-02-04T21:34:17.794Z,19.48
2018-02-04T21:36:46.431Z,16.83
2018-02-04T21:39:16.053Z,16.85
2018-02-04T21:41:45.090Z,18.17
2018-02-04T21:44:14.482Z,15.75
2018-02-04T21:46:43.235Z,18.23
2018-02-04T21:49:11.899Z,18.23
2018-02-04T21:51:41.310Z,17.40
2018-02-04T21:54:10.031Z,17.30
2018-02-04T21:56:38.613Z,17.83
2018-02-04T21:59:07.269Z,16.20
2018-02-04T22:01:36.277Z,16.95
2018-02-04T22:04:05.441Z,14.68
2018-02-04T22:06:35.101Z,17.12
2018-02-04T22:09:03.767Z,17.05
2018-02-04T22:11:32.407Z,17.77
2018-02-04T22:14:00.812Z,16.60
2018-02-04T22:16:29.147Z,16.85
2018-02-04T22:18:57.494Z,17.95
2018-02-04T22:21:26.372Z,15.70
2018-02-04T22:23:54.834Z,16.83
2018-02-04T22:26:23.198Z,17.87
2018-02-04T22:28:51.542Z,17.92
2018-02-04T22:31:20.073Z,17.23
2018-02-04T22:33:48.478Z,16.73
2018-02-04T22:36:16.795Z,17.95
2018-02-04T22:38:45.971Z,17.00
2018-02-04T22:41:14.425Z,16.83
2018-02-04T22:43:42.922Z,16.60
2018-02-04T22:46:11.378Z,16.90
2018-02-04T22:48:39.709Z,16.73
2018-02-04T22:51:08.239Z,16.05
2018-02-04T22:53:36.571Z,16.48
2018-02-04T22:56:05.764Z,13.50
2018-02-04T22:58:34.088Z,15.43
2018-02-04T23:01:02.556Z,15.70
2018-02-04T23:03:30.935Z,14.63
2018-02-04T23:06:00.180Z,15.77
2018-02-04T23:08:28.878Z,16.48
2018-02-04T23:10:58.005Z,17.37
2018-02-04T23:13:26.409Z,14.45
2018-02-04T23:15:54.787Z,16.35
2018-02-04T23:18:23.349Z,17.52
2018-02-04T23:20:51.708Z,17.10
2018-02-04T23:23:20.064Z,18.10
2018-02-04T23:25:49.171Z,17.85
2018-02-04T23:28:18.293Z,19.20
2018-02-04T23:30:46.627Z,15.70
2018-02-04T23:33:15.730Z,16.90
2018-02-04T23:35:44.883Z,16.08
2018-02-04T23:38:13.202Z,15.85
2018-02-04T23:40:42.578Z,17.30
2018-02-04T23:43:10.890Z,16.62
2018-02-04T23:45:39.383Z,16.40
2018-02-04T23:48:07.691Z,16.23
2018-02-04T23:50:36.173Z,17.02
2018-02-04T23:53:04.474Z,17.52
2018-02-04T23:55:32.846Z,16.73
2018-02-04T23:58:01.181Z,15.05
